createdAt,value
2019-05-30T00:05:04.785Z,17.53
2019-05-30T00:10:26.564Z,17.57
2019-05-30T00:15:48.795Z,17.59
2019-05-30T00:21:10.512Z,17.64
2019-05-30T00:26:32.463Z,17.64
2019-05-30T00:31:55.480Z,17.76
2019-05-30T00:37:17.092Z,17.81
2019-05-30T00:42:39.134Z,18.00
2019-05-30T00:48:00.452Z,18.23
2019-05-30T00:53:21.969Z,19.29
2019-05-30T00:58:43.692Z,19.29
2019-05-30T01:04:05.281Z,19.58
2019-05-30T01:09:27.139Z,19.71
2019-05-30T01:14:48.785Z,19.90
2019-05-30T01:20:10.710Z,19.84
2019-05-30T01:25:32.371Z,19.39
2019-05-30T01:31:01.195Z,19.44
2019-05-30T01:36:18.309Z,19.00
2019-05-30T01:41:39.651Z,18.73
2019-05-30T01:47:02.003Z,18.47
2019-05-30T01:52:23.711Z,18.17
2019-05-30T01:57:45.412Z,17.97
2019-05-30T02:03:07.434Z,17.94
2019-05-30T02:08:29.848Z,17.48
2019-05-30T02:13:51.430Z,17.48
2019-05-30T02:19:13.204Z,17.31
2019-05-30T02:24:35.249Z,17.31
2019-05-30T02:29:56.933Z,17.32
2019-05-30T02:35:18.990Z,17.16
2019-05-30T02:40:41.111Z,16.93
2019-05-30T02:46:03.532Z,16.95
2019-05-30T02:51:26.034Z,16.91
2019-05-30T02:56:47.750Z,16.99
2019-05-30T03:02:14.644Z,17.06
2019-05-30T03:07:32.924Z,17.07
2019-05-30T03:12:54.642Z,17.14
2019-05-30T03:18:16.279Z,17.08
2019-05-30T03:23:38.165Z,17.24
2019-05-30T03:28:59.889Z,17.56
2019-05-30T03:34:27.786Z,17.56
2019-05-30T03:39:45.081Z,17.63
2019-05-30T03:45:10.694Z,17.95
2019-05-30T03:50:33.331Z,18.18
2019-05-30T03:56:01.570Z,18.18
2019-05-30T04:01:28.585Z,18.32
2019-05-30T04:06:54.586Z,18.72
2019-05-30T04:12:57.098Z,19.11
2019-05-30T04:18:19.541Z,19.55
2019-05-30T04:23:41.524Z,19.47
2019-05-30T04:29:03.067Z,19.62
2019-05-30T04:34:24.761Z,19.71
2019-05-30T04:39:46.998Z,19.69
2019-05-30T04:45:10.100Z,19.75
2019-05-30T04:50:33.479Z,19.95
2019-05-30T04:55:58.729Z,20.21
2019-05-30T05:01:22.102Z,20.58
2019-05-30T05:06:43.966Z,20.66
2019-05-30T05:12:05.624Z,20.72
2019-05-30T05:17:27.395Z,20.86
2019-05-30T05:22:48.984Z,20.83
2019-05-30T05:28:10.590Z,20.89
2019-05-30T05:33:32.489Z,20.78
2019-05-30T05:38:54.152Z,20.70
2019-05-30T05:44:16.183Z,20.89
2019-05-30T05:49:38.356Z,21.02
2019-05-30T05:55:00.096Z,21.56
2019-05-30T06:00:23.313Z,21.98
2019-05-30T06:05:52.979Z,22.12
2019-05-30T06:11:11.368Z,22.58
2019-05-30T06:16:32.963Z,22.86
2019-05-30T06:21:54.779Z,22.82
2019-05-30T06:27:17.754Z,23.13
2019-05-30T06:32:39.681Z,23.57
2019-05-30T06:38:01.218Z,23.92
2019-05-30T06:43:24.368Z,24.11
2019-05-30T06:48:46.557Z,23.64
2019-05-30T06:54:08.832Z,23.94
2019-05-30T06:59:30.448Z,24.04
2019-05-30T07:04:53.013Z,24.16
2019-05-30T07:10:15.165Z,24.24
2019-05-30T07:15:36.813Z,24.11
2019-05-30T07:20:58.247Z,24.34
2019-05-30T07:26:20.007Z,24.67
2019-05-30T07:31:41.313Z,24.35
2019-05-30T07:37:03.473Z,23.72
2019-05-30T07:42:24.922Z,23.96
2019-05-30T07:47:46.466Z,23.95
2019-05-30T07:53:08.312Z,24.07
2019-05-30T07:58:29.646Z,24.36
2019-05-30T08:03:51.516Z,24.50
2019-05-30T08:09:12.977Z,24.73
2019-05-30T08:14:35.374Z,24.96
2019-05-30T08:19:56.698Z,25.10
2019-05-30T08:25:18.446Z,25.47
2019-05-30T08:30:40.017Z,25.69
2019-05-30T08:36:05.553Z,25.55
2019-05-30T08:41:25.824Z,25.74
2019-05-30T08:46:47.906Z,25.77
2019-05-30T08:52:09.860Z,26.01
2019-05-30T08:57:32.336Z,26.35
2019-05-30T09:02:54.475Z,26.23
2019-05-30T09:08:16.256Z,26.50
2019-05-30T09:13:38.899Z,26.63
2019-05-30T09:19:00.947Z,27.12
2019-05-30T09:24:22.472Z,27.02
2019-05-30T09:29:44.715Z,26.87
2019-05-30T09:35:07.100Z,27.18
2019-05-30T09:40:30.277Z,27.70
2019-05-30T09:45:52.009Z,27.46
2019-05-30T09:51:13.953Z,27.71
2019-05-30T09:56:35.361Z,28.20
2019-05-30T10:01:57.030Z,28.05
2019-05-30T10:07:18.894Z,28.42
2019-05-30T10:12:40.658Z,28.34
2019-05-30T10:18:02.191Z,27.90
2019-05-30T10:23:24.008Z,28.29
2019-05-30T10:28:46.424Z,28.75
2019-05-30T10:34:09.532Z,28.80
2019-05-30T10:39:31.307Z,29.11
2019-05-30T10:44:54.565Z,28.87
2019-05-30T10:50:17.108Z,28.12
2019-05-30T10:55:38.979Z,28.12
2019-05-30T11:01:00.703Z,28.36
2019-05-30T11:07:04.850Z,28.37
2019-05-30T11:12:11.685Z,28.31
2019-05-30T11:17:33.411Z,28.69
2019-05-30T11:22:56.372Z,28.88
2019-05-30T11:28:18.435Z,29.01
2019-05-30T11:33:40.371Z,28.92
2019-05-30T11:39:02.051Z,28.65
2019-05-30T11:44:23.891Z,28.79
2019-05-30T11:49:45.430Z,28.62
2019-05-30T11:55:07.352Z,28.47
2019-05-30T12:00:28.990Z,28.65
2019-05-30T12:05:51.020Z,28.76
2019-05-30T12:11:12.969Z,29.10
2019-05-30T12:16:34.723Z,29.03
2019-05-30T12:21:57.671Z,28.71
2019-05-30T12:27:19.191Z,29.48
2019-05-30T12:32:40.597Z,29.77
2019-05-30T12:38:05.958Z,30.09
2019-05-30T12:43:25.972Z,30.22
2019-05-30T12:48:49.033Z,30.58
2019-05-30T12:54:10.755Z,30.88
2019-05-30T12:59:32.294Z,31.75
2019-05-30T13:04:54.729Z,32.02
2019-05-30T13:10:18.189Z,31.61
2019-05-30T13:15:39.790Z,32.00
2019-05-30T13:21:02.167Z,32.37
2019-05-30T13:26:24.100Z,32.06
2019-05-30T13:31:45.853Z,32.59
2019-05-30T13:37:07.359Z,31.97
2019-05-30T13:42:28.844Z,31.84
2019-05-30T13:47:50.668Z,32.62
2019-05-30T13:53:12.223Z,31.93
2019-05-30T13:58:33.808Z,31.20
2019-05-30T14:03:55.517Z,29.30
2019-05-30T14:09:17.137Z,29.43
2019-05-30T14:14:39.007Z,28.91
2019-05-30T14:20:01.106Z,27.69
2019-05-30T14:25:22.882Z,28.31
2019-05-30T14:30:44.540Z,27.85
2019-05-30T14:36:10.209Z,27.16
2019-05-30T14:41:30.779Z,26.85
2019-05-30T14:46:52.523Z,27.08
2019-05-30T14:52:14.270Z,27.15
2019-05-30T14:57:41.437Z,26.68
2019-05-30T15:03:03.265Z,27.56
2019-05-30T15:08:25.112Z,27.49
2019-05-30T15:13:46.427Z,27.42
2019-05-30T15:19:08.127Z,27.45
2019-05-30T15:24:30.067Z,28.05
2019-05-30T15:29:51.707Z,28.25
2019-05-30T15:35:15.202Z,28.46
2019-05-30T15:40:37.029Z,28.78
2019-05-30T15:45:58.837Z,28.27
2019-05-30T15:51:21.462Z,28.45
2019-05-30T15:56:43.530Z,28.63
2019-05-30T16:02:05.434Z,27.99
2019-05-30T16:07:27.234Z,28.13
2019-05-30T16:12:48.959Z,28.06
2019-05-30T16:18:11.620Z,27.34
2019-05-30T16:23:33.478Z,27.24
2019-05-30T16:28:55.476Z,26.94
2019-05-30T16:34:18.063Z,26.98
2019-05-30T16:39:42.792Z,26.71
2019-05-30T16:45:06.119Z,26.66
2019-05-30T16:50:27.619Z,26.12
2019-05-30T16:55:49.648Z,25.35
2019-05-30T17:01:11.269Z,24.86
2019-05-30T17:06:32.589Z,24.60
2019-05-30T17:11:54.588Z,24.37
2019-05-30T17:17:16.347Z,24.23
2019-05-30T17:22:38.702Z,24.08
2019-05-30T17:28:00.034Z,23.93
2019-05-30T17:33:23.423Z,23.78
2019-05-30T17:38:46.365Z,23.61
2019-05-30T17:44:08.033Z,23.52
2019-05-30T17:49:30.032Z,23.40
2019-05-30T17:54:51.891Z,23.19
2019-05-30T18:00:14.763Z,23.11
2019-05-30T18:05:37.329Z,23.03
2019-05-30T18:10:59.303Z,23.00
2019-05-30T18:16:21.118Z,22.89
2019-05-30T18:21:42.960Z,22.82
2019-05-30T18:27:04.755Z,22.70
2019-05-30T18:32:26.394Z,22.71
2019-05-30T18:37:48.237Z,22.65
2019-05-30T18:43:10.174Z,22.44
2019-05-30T18:48:31.921Z,22.37
2019-05-30T18:53:53.631Z,22.47
2019-05-30T18:59:15.495Z,22.42
2019-05-30T19:04:37.123Z,22.48
2019-05-30T19:09:58.953Z,22.44
2019-05-30T19:15:21.073Z,22.28
2019-05-30T19:20:42.806Z,22.16
2019-05-30T19:26:04.758Z,22.09
2019-05-30T19:31:26.448Z,22.14
2019-05-30T19:36:48.140Z,22.05
2019-05-30T19:42:10.194Z,22.07
2019-05-30T19:47:32.375Z,21.88
2019-05-30T19:52:53.853Z,21.95
2019-05-30T19:58:15.518Z,22.05
2019-05-30T20:03:43.586Z,22.03
2019-05-30T20:09:00.938Z,21.89
2019-05-30T20:14:22.324Z,21.85
2019-05-30T20:19:44.058Z,21.88
2019-05-30T20:25:05.987Z,21.86
2019-05-30T20:30:27.808Z,21.90
2019-05-30T20:35:49.366Z,21.63
2019-05-30T20:41:11.114Z,21.45
2019-05-30T20:46:32.742Z,21.39
2019-05-30T20:51:54.387Z,21.16
2019-05-30T20:57:15.981Z,20.82
2019-05-30T21:02:38.756Z,20.70
2019-05-30T21:08:05.670Z,20.73
2019-05-30T21:13:29.146Z,20.81
2019-05-30T21:18:52.253Z,19.75
2019-05-30T21:24:13.960Z,20.98
2019-05-30T21:29:36.677Z,20.71
2019-05-30T21:34:58.549Z,20.53
2019-05-30T21:40:20.089Z,20.51
2019-05-30T21:45:42.516Z,20.58
2019-05-30T21:51:03.982Z,20.53
2019-05-30T21:56:26.888Z,20.47
2019-05-30T22:01:54.832Z,20.33
2019-05-30T22:07:12.473Z,20.35
2019-05-30T22:12:34.405Z,20.45
2019-05-30T22:17:56.130Z,20.38
2019-05-30T22:23:17.783Z,20.42
2019-05-30T22:28:39.415Z,20.55
2019-05-30T22:34:01.280Z,20.34
2019-05-30T22:39:22.586Z,20.35
2019-05-30T22:44:44.465Z,20.32
2019-05-30T22:50:06.268Z,20.42
2019-05-30T22:55:28.268Z,20.60
2019-05-30T23:00:50.040Z,20.65
2019-05-30T23:06:11.957Z,20.78
2019-05-30T23:11:33.552Z,20.71
2019-05-30T23:16:56.405Z,20.92
2019-05-30T23:22:17.899Z,21.30
2019-05-30T23:27:39.500Z,21.52
2019-05-30T23:33:01.512Z,21.53
2019-05-30T23:38:23.127Z,21.38
2019-05-30T23:43:56.611Z,21.33
2019-05-30T23:49:08.620Z,21.27
2019-05-30T23:54:29.971Z,21.01
2019-05-30T23:59:52.729Z,20.72
